Time;durP1;ratioP1;P1;durP2;ratioP2;P2;SDS_P1;SDS_P2;PMS_P1;PMS_P2;Temp;Humidity;BMP_temperature;BMP_pressure;BME280_temperature;BME280_humidity;BME280_pressure;Samples;Min_cycle;Max_cycle;Signal;HPM_P1;HPM_P2
2021/06/11 00:01:57;;;;;;;7.53;4.90;;;;;;;;;;5043893;28;20407;-68
2021/06/11 00:04:23;;;;;;;6.72;4.93;;;;;;;;;;5044987;28;20409;-68
2021/06/11 00:06:49;;;;;;;6.30;4.82;;;;;;;;;;5042621;28;20476;-69
2021/06/11 00:09:17;;;;;;;6.47;4.95;;;;;;;;;;5044539;28;21075;-68
2021/06/11 00:11:43;;;;;;;9.07;5.10;;;;;;;;;;5042690;28;20452;-66
2021/06/11 00:14:09;;;;;;;6.97;4.68;;;;;;;;;;5043314;28;20413;-67
2021/06/11 00:16:35;;;;;;;6.95;4.82;;;;;;;;;;5044815;28;20436;-67
2021/06/11 00:19:01;;;;;;;6.82;4.75;;;;;;;;;;5043958;28;20413;-66
2021/06/11 00:21:27;;;;;;;8.48;4.72;;;;;;;;;;5040790;28;20477;-66
2021/06/11 00:23:53;;;;;;;7.53;5.55;;;;;;;;;;5040721;28;20389;-66
2021/06/11 00:26:20;;;;;;;7.93;5.90;;;;;;;;;;5042000;28;20421;-67
2021/06/11 00:28:46;;;;;;;7.18;5.40;;;;;;;;;;5041678;28;20445;-67
2021/06/11 00:31:12;;;;;;;7.80;5.70;;;;;;;;;;5024720;28;20390;-66
2021/06/11 00:33:38;;;;;;;10.00;6.33;;;;;;;;;;5042298;28;20395;-66
2021/06/11 00:36:04;;;;;;;7.57;5.70;;;;;;;;;;5041438;28;20950;-67
2021/06/11 00:38:31;;;;;;;7.53;5.28;;;;;;;;;;5042348;28;20405;-67
2021/06/11 00:40:58;;;;;;;7.50;5.47;;;;;;;;;;5038396;28;20401;-68
2021/06/11 00:43:24;;;;;;;6.38;4.90;;;;;;;;;;5043744;28;20492;-67
2021/06/11 00:45:50;;;;;;;8.75;5.55;;;;;;;;;;5042629;28;20496;-66
2021/06/11 00:48:16;;;;;;;7.93;5.40;;;;;;;;;;5041375;28;20589;-66
2021/06/11 00:50:42;;;;;;;7.07;5.10;;;;;;;;;;5043976;28;20421;-66
2021/06/11 00:53:08;;;;;;;7.40;5.15;;;;;;;;;;5043752;28;20398;-67
2021/06/11 00:55:35;;;;;;;7.00;5.07;;;;;;;;;;5045288;28;20535;-66
2021/06/11 00:58:01;;;;;;;6.47;4.95;;;;;;;;;;5040884;28;20793;-67
2021/06/11 01:00:27;;;;;;;7.03;4.53;;;;;;;;;;5042866;28;20475;-66
2021/06/11 01:02:53;;;;;;;9.53;6.37;;;;;;;;;;5043170;28;20393;-67
2021/06/11 01:05:19;;;;;;;8.02;6.40;;;;;;;;;;5040700;28;20482;-66
2021/06/11 01:07:49;;;;;;;9.50;7.05;;;;;;;;;;5043943;28;20789;-67
2021/06/11 01:10:16;;;;;;;10.23;7.75;;;;;;;;;;5042400;28;21174;-66
2021/06/11 01:12:43;;;;;;;10.95;8.48;;;;;;;;;;5039173;28;20405;-66
2021/06/11 01:15:10;;;;;;;11.55;8.85;;;;;;;;;;5041809;28;20470;-66
2021/06/11 01:17:36;;;;;;;10.55;9.18;;;;;;;;;;5042914;28;20406;-66
2021/06/11 01:20:05;;;;;;;11.93;10.10;;;;;;;;;;5045182;28;20854;-67
2021/06/11 01:22:49;;;;;;;11.43;9.23;;;;;;;;;;5039488;28;20402;-66
2021/06/11 01:25:16;;;;;;;12.25;9.95;;;;;;;;;;5041201;28;20693;-67
2021/06/11 01:27:46;;;;;;;11.20;9.17;;;;;;;;;;5042815;28;20422;-66
2021/06/11 01:30:15;;;;;;;12.45;9.23;;;;;;;;;;5038251;28;20391;-66
2021/06/11 01:32:41;;;;;;;9.32;8.23;;;;;;;;;;5044735;28;20401;-67
2021/06/11 01:35:09;;;;;;;12.38;8.15;;;;;;;;;;5045179;28;20482;-66
2021/06/11 01:37:36;;;;;;;12.45;9.02;;;;;;;;;;5042990;28;20421;-66
2021/06/11 01:40:06;;;;;;;9.77;8.40;;;;;;;;;;5043520;28;20394;-67
2021/06/11 01:42:37;;;;;;;9.90;7.85;;;;;;;;;;5042713;28;20714;-66
2021/06/11 01:45:09;;;;;;;9.27;8.25;;;;;;;;;;5043273;28;20528;-67
2021/06/11 01:47:42;;;;;;;9.45;8.35;;;;;;;;;;5042365;28;20481;-67
2021/06/11 01:50:09;;;;;;;11.20;8.40;;;;;;;;;;5045861;28;20758;-67
2021/06/11 01:52:37;;;;;;;9.73;8.40;;;;;;;;;;5043723;28;21052;-67
2021/06/11 01:55:03;;;;;;;10.30;8.27;;;;;;;;;;5042007;28;20497;-67
2021/06/11 01:57:30;;;;;;;10.35;8.20;;;;;;;;;;5045708;28;20464;-67
2021/06/11 01:59:56;;;;;;;10.88;8.63;;;;;;;;;;5042877;28;20390;-67
2021/06/11 02:02:22;;;;;;;11.50;8.47;;;;;;;;;;5042748;28;20910;-67
2021/06/11 02:04:48;;;;;;;9.95;8.77;;;;;;;;;;5042022;28;20887;-67
2021/06/11 02:07:15;;;;;;;10.07;8.98;;;;;;;;;;5042084;28;20509;-67
2021/06/11 02:09:41;;;;;;;11.20;9.18;;;;;;;;;;5040859;28;20406;-67
2021/06/11 02:12:08;;;;;;;11.27;9.05;;;;;;;;;;5041900;28;20868;-67
2021/06/11 02:14:35;;;;;;;10.37;8.53;;;;;;;;;;5042633;28;20860;-67
2021/06/11 02:17:01;;;;;;;11.35;8.63;;;;;;;;;;5036690;28;20715;-67
2021/06/11 02:19:28;;;;;;;10.32;8.13;;;;;;;;;;5041718;28;20411;-67
2021/06/11 02:21:54;;;;;;;10.00;8.80;;;;;;;;;;5042658;28;20401;-67
2021/06/11 02:24:20;;;;;;;10.80;8.40;;;;;;;;;;5042572;28;20512;-67
2021/06/11 02:26:46;;;;;;;12.05;8.68;;;;;;;;;;5041896;28;20401;-67
2021/06/11 02:29:12;;;;;;;9.38;7.78;;;;;;;;;;5024346;28;20759;-67
2021/06/11 02:31:39;;;;;;;11.38;8.40;;;;;;;;;;5041893;28;20397;-67
2021/06/11 02:34:07;;;;;;;9.32;7.65;;;;;;;;;;5044173;28;20393;-67
2021/06/11 02:36:33;;;;;;;9.68;7.85;;;;;;;;;;5039519;28;20421;-67
2021/06/11 02:38:59;;;;;;;9.75;8.18;;;;;;;;;;5044975;28;20493;-67
2021/06/11 02:41:28;;;;;;;10.90;8.20;;;;;;;;;;5042796;28;20394;-67
2021/06/11 02:43:54;;;;;;;11.50;9.15;;;;;;;;;;5041939;28;20589;-67
2021/06/11 02:46:23;;;;;;;9.33;8.30;;;;;;;;;;5045935;28;20412;-68
2021/06/11 02:48:54;;;;;;;9.60;7.90;;;;;;;;;;5048654;28;21067;-67
2021/06/11 02:51:26;;;;;;;9.55;7.30;;;;;;;;;;5046444;28;20405;-67
2021/06/11 02:53:52;;;;;;;9.77;7.28;;;;;;;;;;5045147;28;20911;-67
2021/06/11 02:56:28;;;;;;;11.40;7.85;;;;;;;;;;5039786;28;20434;-67
2021/06/11 02:59:01;;;;;;;10.70;7.80;;;;;;;;;;5045322;28;20385;-67
2021/06/11 03:01:28;;;;;;;10.13;7.82;;;;;;;;;;5044517;28;20438;-67
2021/06/11 03:03:58;;;;;;;9.20;7.90;;;;;;;;;;5043240;28;20405;-67
2021/06/11 03:06:25;;;;;;;9.32;7.63;;;;;;;;;;5045867;28;20409;-67
2021/06/11 03:08:51;;;;;;;12.07;7.82;;;;;;;;;;5044132;28;20434;-67
2021/06/11 03:11:28;;;;;;;12.50;8.77;;;;;;;;;;5039436;28;20920;-68
2021/06/11 03:13:54;;;;;;;11.13;8.75;;;;;;;;;;5044665;28;20490;-66
2021/06/11 03:16:20;;;;;;;10.90;8.80;;;;;;;;;;5048766;28;20910;-68
2021/06/11 03:18:57;;;;;;;11.93;8.88;;;;;;;;;;5045381;28;20482;-67
2021/06/11 03:21:31;;;;;;;11.82;9.85;;;;;;;;;;5046021;28;20498;-67
2021/06/11 03:24:09;;;;;;;10.77;9.57;;;;;;;;;;5047748;28;20405;-67
2021/06/11 03:26:40;;;;;;;13.35;10.27;;;;;;;;;;5045852;28;20858;-67
2021/06/11 03:29:08;;;;;;;12.00;10.02;;;;;;;;;;5041958;28;20515;-67
2021/06/11 03:31:36;;;;;;;12.02;10.27;;;;;;;;;;5042125;28;20462;-67
2021/06/11 03:34:06;;;;;;;11.73;10.23;;;;;;;;;;5046113;28;20417;-67
2021/06/11 03:36:36;;;;;;;12.55;10.30;;;;;;;;;;5047256;28;20427;-67
2021/06/11 03:39:04;;;;;;;11.33;9.83;;;;;;;;;;5067625;28;20916;-67
2021/06/11 03:41:30;;;;;;;13.98;10.10;;;;;;;;;;5067138;28;20458;-67
2021/06/11 03:43:56;;;;;;;11.80;10.23;;;;;;;;;;5064777;28;20403;-67
2021/06/11 03:46:23;;;;;;;12.57;10.73;;;;;;;;;;5065243;28;20461;-67
2021/06/11 03:48:51;;;;;;;11.93;10.63;;;;;;;;;;5066908;28;20433;-67
2021/06/11 03:51:18;;;;;;;11.38;10.18;;;;;;;;;;5065585;28;20718;-68
2021/06/11 03:53:45;;;;;;;11.85;9.93;;;;;;;;;;5065076;28;20457;-67
2021/06/11 03:56:12;;;;;;;11.48;9.45;;;;;;;;;;5062476;28;20422;-67
2021/06/11 03:58:43;;;;;;;10.20;8.88;;;;;;;;;;5063486;28;20400;-67
2021/06/11 04:01:13;;;;;;;12.68;10.27;;;;;;;;;;5056946;28;20389;-67
2021/06/11 04:03:40;;;;;;;11.90;10.60;;;;;;;;;;5059448;28;20836;-67
2021/06/11 04:06:15;;;;;;;13.50;11.23;;;;;;;;;;5064042;28;20391;-67
2021/06/11 04:08:41;;;;;;;14.75;12.02;;;;;;;;;;5064295;28;20490;-67
2021/06/11 04:11:07;;;;;;;13.55;12.15;;;;;;;;;;5063045;28;20490;-67
2021/06/11 04:13:48;;;;;;;14.18;11.90;;;;;;;;;;5058594;28;20712;-67
2021/06/11 04:16:18;;;;;;;15.57;13.40;;;;;;;;;;5061089;28;20436;-67
2021/06/11 04:18:45;;;;;;;15.65;13.93;;;;;;;;;;5063298;28;20780;-67
2021/06/11 04:21:13;;;;;;;17.15;14.10;;;;;;;;;;5060720;28;20402;-67
2021/06/11 04:23:40;;;;;;;18.17;15.50;;;;;;;;;;5063455;28;20431;-67
2021/06/11 04:26:07;;;;;;;18.40;16.38;;;;;;;;;;5059649;28;20821;-67
2021/06/11 04:28:35;;;;;;;19.88;16.63;;;;;;;;;;5060788;28;20423;-67
2021/06/11 04:31:01;;;;;;;17.48;15.40;;;;;;;;;;5064901;28;20400;-67
2021/06/11 04:33:28;;;;;;;19.02;17.00;;;;;;;;;;5059234;28;20719;-68
2021/06/11 04:35:55;;;;;;;21.38;16.98;;;;;;;;;;5060266;28;20445;-67
2021/06/11 04:38:21;;;;;;;18.15;16.00;;;;;;;;;;5062719;28;20481;-67
2021/06/11 04:40:47;;;;;;;18.70;16.52;;;;;;;;;;5065754;28;20419;-67
2021/06/11 04:43:14;;;;;;;16.55;14.75;;;;;;;;;;5059266;28;20998;-68
2021/06/11 04:45:40;;;;;;;17.90;15.95;;;;;;;;;;5059319;28;20447;-67
2021/06/11 04:48:06;;;;;;;18.10;15.77;;;;;;;;;;5056496;28;20399;-67
2021/06/11 04:50:32;;;;;;;19.70;16.17;;;;;;;;;;5058814;28;20510;-67
2021/06/11 04:52:59;;;;;;;16.77;14.82;;;;;;;;;;5065644;28;21030;-67
2021/06/11 04:55:24;;;;;;;18.20;15.55;;;;;;;;;;5059484;28;20510;-67
2021/06/11 04:57:52;;;;;;;18.95;16.65;;;;;;;;;;5062103;28;20551;-67
2021/06/11 05:00:18;;;;;;;18.73;16.70;;;;;;;;;;5065403;28;20416;-67
2021/06/11 05:02:44;;;;;;;18.97;16.97;;;;;;;;;;5063269;28;20496;-67
2021/06/11 05:05:11;;;;;;;18.23;16.33;;;;;;;;;;5061780;28;20410;-67
2021/06/11 05:07:37;;;;;;;19.67;16.65;;;;;;;;;;5060109;28;20538;-67
2021/06/11 05:10:04;;;;;;;18.00;16.10;;;;;;;;;;5062846;28;20396;-67
2021/06/11 05:12:30;;;;;;;18.92;16.50;;;;;;;;;;5063085;28;20508;-67
2021/06/11 05:14:56;;;;;;;20.43;17.97;;;;;;;;;;5059416;28;20389;-67
2021/06/11 05:17:21;;;;;;;20.63;18.42;;;;;;;;;;5066755;28;20733;-67
2021/06/11 05:19:47;;;;;;;22.52;19.48;;;;;;;;;;5059281;28;20405;-67
2021/06/11 05:22:13;;;;;;;22.38;19.08;;;;;;;;;;5060561;28;20403;-66
2021/06/11 05:24:39;;;;;;;20.25;18.17;;;;;;;;;;5056339;28;20393;-66
2021/06/11 05:27:06;;;;;;;22.02;17.98;;;;;;;;;;5062489;28;20472;-67
2021/06/11 05:29:32;;;;;;;21.10;18.90;;;;;;;;;;5065305;28;20410;-67
2021/06/11 05:31:58;;;;;;;21.80;19.27;;;;;;;;;;5063084;28;20393;-67
2021/06/11 05:34:24;;;;;;;22.30;19.35;;;;;;;;;;5065482;28;20472;-67
2021/06/11 05:36:50;;;;;;;21.65;19.35;;;;;;;;;;5063209;28;20514;-67
2021/06/11 05:39:16;;;;;;;23.08;18.67;;;;;;;;;;5059791;28;20393;-67
2021/06/11 05:41:41;;;;;;;21.23;18.90;;;;;;;;;;5061657;28;20393;-66
2021/06/11 05:44:07;;;;;;;24.45;19.17;;;;;;;;;;5063730;28;20471;-67
2021/06/11 05:46:34;;;;;;;22.03;19.30;;;;;;;;;;5059488;28;20484;-67
2021/06/11 05:49:00;;;;;;;22.15;19.10;;;;;;;;;;5060132;28;20487;-67
2021/06/11 05:51:26;;;;;;;22.60;19.50;;;;;;;;;;5065769;28;20893;-67
2021/06/11 05:53:52;;;;;;;25.67;21.60;;;;;;;;;;5060027;28;20426;-67
2021/06/11 05:56:18;;;;;;;24.38;21.42;;;;;;;;;;5058642;28;20425;-67
2021/06/11 05:58:46;;;;;;;24.27;21.58;;;;;;;;;;5062166;28;20491;-67
2021/06/11 06:01:12;;;;;;;23.98;21.15;;;;;;;;;;5061632;28;20407;-66
2021/06/11 06:03:38;;;;;;;28.50;22.73;;;;;;;;;;5047706;28;20502;-67
2021/06/11 06:06:04;;;;;;;24.23;20.52;;;;;;;;;;5066382;28;20407;-66
2021/06/11 06:08:30;;;;;;;25.98;20.50;;;;;;;;;;5062829;28;20427;-68
2021/06/11 06:10:56;;;;;;;22.47;19.67;;;;;;;;;;5058830;28;20400;-67
2021/06/11 06:13:22;;;;;;;24.25;21.20;;;;;;;;;;5061498;28;20494;-67
2021/06/11 06:15:48;;;;;;;23.15;19.00;;;;;;;;;;5061019;28;20963;-67
2021/06/11 06:18:14;;;;;;;21.55;18.52;;;;;;;;;;5059465;28;20491;-67
2021/06/11 06:20:41;;;;;;;22.88;19.17;;;;;;;;;;5063583;28;20865;-66
2021/06/11 06:23:07;;;;;;;21.73;17.70;;;;;;;;;;5066739;28;20395;-68
2021/06/11 06:25:34;;;;;;;23.03;18.10;;;;;;;;;;5061369;28;20574;-68
2021/06/11 06:28:00;;;;;;;21.20;17.52;;;;;;;;;;5067470;28;20737;-67
2021/06/11 06:30:27;;;;;;;19.88;16.80;;;;;;;;;;5063763;28;20728;-68
2021/06/11 06:32:56;;;;;;;21.33;16.90;;;;;;;;;;5067078;28;20398;-67
2021/06/11 06:35:22;;;;;;;20.67;17.25;;;;;;;;;;5047778;28;21211;-67
2021/06/11 06:37:48;;;;;;;18.57;15.97;;;;;;;;;;5062075;28;20503;-68
2021/06/11 06:40:15;;;;;;;18.50;16.42;;;;;;;;;;5065280;28;21164;-67
2021/06/11 06:42:42;;;;;;;17.17;15.35;;;;;;;;;;5066622;28;20403;-67
2021/06/11 06:45:14;;;;;;;17.63;14.40;;;;;;;;;;5062829;28;20389;-67
2021/06/11 06:47:44;;;;;;;16.73;14.82;;;;;;;;;;5065308;28;20438;-67
2021/06/11 06:50:12;;;;;;;17.30;14.43;;;;;;;;;;5067931;28;20395;-67
2021/06/11 06:52:38;;;;;;;15.53;12.17;;;;;;;;;;5064838;28;20488;-67
2021/06/11 06:55:04;;;;;;;15.90;13.20;;;;;;;;;;5061156;28;20403;-67
2021/06/11 06:57:30;;;;;;;14.35;12.48;;;;;;;;;;5063993;28;20401;-67
2021/06/11 06:59:56;;;;;;;15.80;11.77;;;;;;;;;;5065652;28;20879;-68
2021/06/11 07:02:22;;;;;;;14.65;11.60;;;;;;;;;;5059813;28;20480;-67
2021/06/11 07:04:48;;;;;;;15.93;12.90;;;;;;;;;;5065279;28;20833;-67
2021/06/11 07:07:16;;;;;;;16.33;13.32;;;;;;;;;;5066205;28;20388;-67
2021/06/11 07:09:42;;;;;;;16.20;12.55;;;;;;;;;;5060226;28;20915;-67
2021/06/11 07:12:08;;;;;;;17.50;15.53;;;;;;;;;;5064996;28;20393;-67
2021/06/11 07:14:35;;;;;;;19.35;16.00;;;;;;;;;;5068307;28;20482;-67
2021/06/11 07:17:01;;;;;;;18.52;16.20;;;;;;;;;;5065735;28;20460;-67
2021/06/11 07:19:27;;;;;;;16.77;14.47;;;;;;;;;;5064574;28;20873;-69
2021/06/11 07:21:54;;;;;;;20.03;16.20;;;;;;;;;;5067550;28;20464;-67
2021/06/11 07:24:20;;;;;;;16.93;14.30;;;;;;;;;;5063398;28;20422;-67
2021/06/11 07:26:46;;;;;;;17.88;15.70;;;;;;;;;;5063043;28;20410;-66
2021/06/11 07:29:12;;;;;;;17.10;15.18;;;;;;;;;;5063385;28;20574;-67
2021/06/11 07:31:38;;;;;;;17.17;14.20;;;;;;;;;;5066928;28;20980;-66
2021/06/11 07:34:05;;;;;;;16.48;13.23;;;;;;;;;;5064655;28;20461;-67
2021/06/11 07:36:31;;;;;;;15.57;12.32;;;;;;;;;;5060616;28;20518;-67
2021/06/11 07:38:57;;;;;;;16.63;12.18;;;;;;;;;;5061581;28;20431;-68
2021/06/11 07:41:23;;;;;;;16.85;12.68;;;;;;;;;;5060315;28;20436;-68
2021/06/11 07:43:53;;;;;;;17.08;12.40;;;;;;;;;;5061825;28;20449;-67
2021/06/11 07:46:20;;;;;;;16.27;11.98;;;;;;;;;;5060991;28;20454;-67
2021/06/11 07:48:46;;;;;;;15.88;12.57;;;;;;;;;;5059318;28;20462;-66
2021/06/11 07:51:12;;;;;;;16.15;14.18;;;;;;;;;;5066647;28;20422;-67
2021/06/11 07:53:38;;;;;;;16.67;14.90;;;;;;;;;;5060196;28;20411;-67
2021/06/11 07:56:04;;;;;;;15.48;13.73;;;;;;;;;;5061030;28;20751;-67
2021/06/11 07:58:31;;;;;;;20.85;16.42;;;;;;;;;;5066237;28;21152;-67
2021/06/11 08:00:57;;;;;;;17.17;13.77;;;;;;;;;;5060420;28;20399;-67
2021/06/11 08:03:23;;;;;;;17.30;13.23;;;;;;;;;;5066635;28;20410;-67
2021/06/11 08:05:49;;;;;;;18.03;12.83;;;;;;;;;;5060682;28;20872;-67
2021/06/11 08:08:15;;;;;;;16.80;13.30;;;;;;;;;;5063499;28;20506;-67
2021/06/11 08:10:41;;;;;;;16.80;14.18;;;;;;;;;;5061678;28;21211;-67
2021/06/11 08:13:07;;;;;;;17.10;14.32;;;;;;;;;;5070854;28;20396;-67
2021/06/11 08:15:34;;;;;;;16.63;13.97;;;;;;;;;;5064151;28;21198;-67
2021/06/11 08:18:00;;;;;;;15.98;13.70;;;;;;;;;;5063003;28;20406;-67
2021/06/11 08:20:26;;;;;;;15.68;13.18;;;;;;;;;;5066063;28;20715;-67
2021/06/11 08:22:52;;;;;;;15.68;13.90;;;;;;;;;;5062820;28;20891;-67
2021/06/11 08:25:18;;;;;;;16.43;14.10;;;;;;;;;;5060164;28;20466;-67
2021/06/11 08:27:44;;;;;;;18.38;15.73;;;;;;;;;;5058750;28;20463;-67
2021/06/11 08:30:11;;;;;;;16.30;13.60;;;;;;;;;;5062469;28;20408;-67
2021/06/11 08:32:38;;;;;;;14.40;12.82;;;;;;;;;;5065150;28;20384;-67
2021/06/11 08:35:04;;;;;;;16.80;12.63;;;;;;;;;;5061201;28;20773;-67
2021/06/11 08:37:30;;;;;;;13.00;10.98;;;;;;;;;;5062910;28;20427;-67
2021/06/11 08:39:57;;;;;;;16.83;12.73;;;;;;;;;;5049323;28;20596;-67
2021/06/11 08:42:31;;;;;;;14.18;12.02;;;;;;;;;;5063044;28;20879;-66
2021/06/11 08:45:02;;;;;;;14.48;12.88;;;;;;;;;;5065725;28;20383;-67
2021/06/11 08:47:28;;;;;;;16.80;14.03;;;;;;;;;;5055365;28;20493;-67
2021/06/11 08:49:58;;;;;;;15.43;12.80;;;;;;;;;;5059032;28;20401;-67
2021/06/11 08:52:24;;;;;;;14.25;12.32;;;;;;;;;;5059081;28;20421;-66
2021/06/11 08:54:51;;;;;;;13.10;11.70;;;;;;;;;;5061625;28;20395;-67
2021/06/11 08:57:17;;;;;;;14.07;12.15;;;;;;;;;;5057958;28;20936;-67
2021/06/11 08:59:46;;;;;;;15.53;12.50;;;;;;;;;;5064755;28;20449;-68
2021/06/11 09:02:12;;;;;;;17.67;13.60;;;;;;;;;;5050290;28;20399;-68
2021/06/11 09:04:47;;;;;;;18.20;13.95;;;;;;;;;;5056996;28;20395;-67
2021/06/11 09:07:28;;;;;;;16.48;14.07;;;;;;;;;;5061545;28;20717;-67
2021/06/11 09:10:03;;;;;;;17.00;14.85;;;;;;;;;;5053350;28;20471;-67
2021/06/11 09:12:39;;;;;;;16.40;13.98;;;;;;;;;;5049537;28;21004;-67
2021/06/11 09:15:15;;;;;;;16.30;14.05;;;;;;;;;;5060880;28;20430;-67
2021/06/11 09:17:49;;;;;;;17.30;13.23;;;;;;;;;;5063173;28;20407;-67
2021/06/11 09:20:18;;;;;;;13.37;11.17;;;;;;;;;;5058388;28;20479;-67
2021/06/11 09:22:46;;;;;;;16.15;14.27;;;;;;;;;;5060880;28;20413;-68
2021/06/11 09:25:27;;;;;;;17.65;13.70;;;;;;;;;;5060546;28;20382;-67
2021/06/11 09:27:55;;;;;;;16.70;14.38;;;;;;;;;;5059139;28;20410;-67
2021/06/11 09:30:23;;;;;;;17.27;14.25;;;;;;;;;;5059610;28;20406;-67
2021/06/11 09:32:56;;;;;;;19.10;15.13;;;;;;;;;;5064189;28;20399;-68
2021/06/11 09:35:43;;;;;;;17.27;14.25;;;;;;;;;;5061991;28;21000;-66
2021/06/11 09:38:15;;;;;;;19.33;14.73;;;;;;;;;;5062329;28;20422;-67
2021/06/11 09:40:42;;;;;;;17.63;14.02;;;;;;;;;;5068171;28;20449;-68
2021/06/11 09:43:09;;;;;;;19.33;15.73;;;;;;;;;;5060207;28;20404;-67
2021/06/11 09:45:36;;;;;;;19.70;16.02;;;;;;;;;;5062105;28;20431;-68
2021/06/11 09:48:02;;;;;;;29.17;15.80;;;;;;;;;;5057404;28;20417;-67
2021/06/11 09:50:38;;;;;;;19.15;13.70;;;;;;;;;;5059431;28;20884;-67
2021/06/11 09:53:04;;;;;;;20.30;16.02;;;;;;;;;;5059990;28;20405;-68
2021/06/11 09:55:31;;;;;;;26.08;17.50;;;;;;;;;;5064649;28;20423;-67
2021/06/11 09:58:05;;;;;;;20.92;17.77;;;;;;;;;;5062719;28;20408;-68
2021/06/11 10:00:32;;;;;;;22.95;18.52;;;;;;;;;;5068226;28;21104;-67
2021/06/11 10:02:59;;;;;;;25.67;18.13;;;;;;;;;;5063819;28;20534;-67
2021/06/11 10:05:25;;;;;;;23.33;19.17;;;;;;;;;;5064624;28;20869;-67
2021/06/11 10:07:52;;;;;;;22.90;18.27;;;;;;;;;;5065272;28;20414;-67
2021/06/11 10:10:18;;;;;;;23.08;19.25;;;;;;;;;;5064120;28;20406;-67
2021/06/11 10:12:44;;;;;;;22.42;17.60;;;;;;;;;;5064484;28;20405;-68
2021/06/11 10:15:11;;;;;;;22.40;16.85;;;;;;;;;;5059110;28;20436;-67
2021/06/11 10:17:37;;;;;;;22.10;16.90;;;;;;;;;;5064961;28;20399;-67
2021/06/11 10:20:03;;;;;;;22.67;17.48;;;;;;;;;;5063989;28;20395;-67
2021/06/11 10:22:29;;;;;;;20.23;15.85;;;;;;;;;;5066011;28;20392;-67
2021/06/11 10:24:56;;;;;;;22.33;17.30;;;;;;;;;;5060157;28;20405;-68
2021/06/11 10:27:22;;;;;;;21.20;16.80;;;;;;;;;;5065857;28;20402;-68
2021/06/11 10:29:49;;;;;;;21.83;16.30;;;;;;;;;;5051282;28;20400;-67
2021/06/11 10:32:17;;;;;;;20.40;16.40;;;;;;;;;;5064332;28;20492;-67
2021/06/11 10:34:50;;;;;;;19.40;15.85;;;;;;;;;;5064379;28;20760;-67
2021/06/11 10:37:32;;;;;;;21.33;17.93;;;;;;;;;;5063285;28;20423;-68
2021/06/11 10:40:21;;;;;;;22.13;19.67;;;;;;;;;;5064872;28;20400;-68
2021/06/11 10:42:47;;;;;;;18.80;16.23;;;;;;;;;;5062430;28;20408;-68
2021/06/11 10:45:34;;;;;;;20.08;17.65;;;;;;;;;;5062898;28;20399;-68
2021/06/11 10:48:00;;;;;;;19.40;16.98;;;;;;;;;;5064911;28;20403;-67
2021/06/11 10:50:33;;;;;;;16.10;14.23;;;;;;;;;;5053058;28;20392;-67
2021/06/11 10:53:27;;;;;;;19.10;17.05;;;;;;;;;;5065257;28;20402;-67
2021/06/11 10:56:06;;;;;;;17.83;15.80;;;;;;;;;;5066865;28;20435;-67
2021/06/11 10:58:33;;;;;;;19.55;17.17;;;;;;;;;;5064198;28;20391;-68
2021/06/11 11:01:06;;;;;;;21.90;19.25;;;;;;;;;;5071060;28;20372;-67
2021/06/11 11:03:33;;;;;;;22.75;20.35;;;;;;;;;;5068000;28;20403;-68
2021/06/11 11:06:19;;;;;;;26.70;23.33;;;;;;;;;;5056045;28;20401;-67
2021/06/11 11:08:52;;;;;;;24.10;21.60;;;;;;;;;;5052154;28;20388;-67
2021/06/11 11:11:28;;;;;;;22.70;19.85;;;;;;;;;;5052026;28;20389;-68
2021/06/11 11:13:56;;;;;;;19.83;17.77;;;;;;;;;;5062543;28;20395;-67
2021/06/11 11:16:23;;;;;;;19.15;16.83;;;;;;;;;;5061450;28;20429;-68
2021/06/11 11:18:49;;;;;;;24.60;21.38;;;;;;;;;;5060125;28;20875;-67
2021/06/11 11:21:22;;;;;;;23.17;20.77;;;;;;;;;;5065268;28;20882;-67
2021/06/11 11:23:52;;;;;;;24.02;21.50;;;;;;;;;;5065994;28;20395;-67
2021/06/11 11:26:19;;;;;;;27.88;23.15;;;;;;;;;;5060726;28;20397;-68
2021/06/11 11:28:46;;;;;;;26.98;23.52;;;;;;;;;;5067745;28;20415;-67
2021/06/11 11:31:13;;;;;;;27.55;23.67;;;;;;;;;;5065435;28;20384;-68
2021/06/11 11:33:39;;;;;;;28.65;25.55;;;;;;;;;;5062531;28;20471;-67
2021/06/11 11:36:05;;;;;;;31.65;27.92;;;;;;;;;;5063291;28;20481;-68
2021/06/11 11:38:32;;;;;;;33.85;28.88;;;;;;;;;;5060921;28;20587;-67
2021/06/11 11:40:58;;;;;;;32.88;27.67;;;;;;;;;;5063644;28;20391;-68
2021/06/11 11:43:24;;;;;;;27.67;23.48;;;;;;;;;;5069119;28;20400;-67
2021/06/11 11:45:50;;;;;;;34.08;30.33;;;;;;;;;;5062215;28;20391;-68
2021/06/11 11:48:21;;;;;;;33.78;29.20;;;;;;;;;;5066975;28;20475;-67
2021/06/11 11:50:47;;;;;;;31.90;27.67;;;;;;;;;;5065376;28;20465;-68
2021/06/11 11:53:13;;;;;;;34.83;30.67;;;;;;;;;;5067434;28;20387;-68
2021/06/11 11:55:39;;;;;;;32.78;29.02;;;;;;;;;;5057743;28;20421;-67
2021/06/11 11:58:05;;;;;;;36.60;32.47;;;;;;;;;;5058240;28;20402;-68
2021/06/11 12:00:31;;;;;;;36.80;32.80;;;;;;;;;;5060221;28;20724;-67
2021/06/11 12:02:57;;;;;;;33.75;30.25;;;;;;;;;;5063754;28;20784;-68
2021/06/11 12:05:23;;;;;;;31.70;28.38;;;;;;;;;;5051944;28;20447;-68
2021/06/11 12:07:49;;;;;;;33.47;29.85;;;;;;;;;;5062144;28;20749;-68
2021/06/11 12:10:15;;;;;;;33.00;29.67;;;;;;;;;;5063465;28;20394;-68
2021/06/11 12:12:41;;;;;;;32.28;28.75;;;;;;;;;;5060194;28;20395;-67
2021/06/11 12:15:07;;;;;;;28.88;25.88;;;;;;;;;;5050458;28;20480;-69
2021/06/11 12:17:33;;;;;;;33.28;26.83;;;;;;;;;;5064531;28;20403;-70
2021/06/11 12:19:59;;;;;;;31.95;28.30;;;;;;;;;;5066116;28;20404;-69
2021/06/11 12:22:25;;;;;;;30.42;27.23;;;;;;;;;;5060005;28;20728;-69
2021/06/11 12:24:51;;;;;;;32.40;29.00;;;;;;;;;;5055435;28;20397;-69
2021/06/11 12:27:17;;;;;;;31.05;27.73;;;;;;;;;;5056087;28;20399;-69
2021/06/11 12:29:43;;;;;;;38.03;34.08;;;;;;;;;;5065160;28;20391;-69
2021/06/11 12:32:09;;;;;;;37.13;33.23;;;;;;;;;;5061832;28;21155;-69
2021/06/11 12:34:35;;;;;;;35.97;32.23;;;;;;;;;;5062523;28;20494;-69
2021/06/11 12:37:01;;;;;;;34.53;30.90;;;;;;;;;;5063260;28;20457;-69
2021/06/11 12:39:29;;;;;;;35.65;31.83;;;;;;;;;;5061015;28;20390;-69
2021/06/11 12:41:57;;;;;;;33.40;30.00;;;;;;;;;;5063068;28;20397;-69
2021/06/11 12:44:25;;;;;;;33.63;30.15;;;;;;;;;;5064477;28;20536;-69
2021/06/11 12:46:55;;;;;;;33.17;29.83;;;;;;;;;;5064300;28;20392;-69
2021/06/11 12:49:22;;;;;;;33.83;30.23;;;;;;;;;;5061421;28;20539;-70
2021/06/11 12:51:49;;;;;;;31.00;27.63;;;;;;;;;;5066784;28;20529;-69
2021/06/11 12:54:15;;;;;;;29.33;26.40;;;;;;;;;;5062798;28;20415;-69
2021/06/11 12:56:41;;;;;;;28.98;25.98;;;;;;;;;;5062486;28;20461;-69
2021/06/11 12:59:09;;;;;;;30.93;27.70;;;;;;;;;;5064390;28;20404;-68
2021/06/11 13:01:35;;;;;;;27.33;24.63;;;;;;;;;;5066851;28;20392;-68
2021/06/11 13:04:01;;;;;;;26.80;24.02;;;;;;;;;;5060507;28;20397;-69
2021/06/11 13:06:27;;;;;;;24.63;22.13;;;;;;;;;;5061033;28;20399;-69
2021/06/11 13:08:54;;;;;;;22.87;20.57;;;;;;;;;;5058300;28;20411;-71
2021/06/11 13:11:20;;;;;;;23.17;20.77;;;;;;;;;;5063722;28;20399;-68
2021/06/11 13:13:46;;;;;;;24.50;21.92;;;;;;;;;;5061776;28;20592;-69
2021/06/11 13:16:12;;;;;;;23.52;21.20;;;;;;;;;;5063322;28;20459;-70
2021/06/11 13:18:38;;;;;;;18.30;15.70;;;;;;;;;;5057304;28;20415;-69
2021/06/11 13:21:04;;;;;;;20.27;18.17;;;;;;;;;;5061526;28;20391;-68
2021/06/11 13:23:31;;;;;;;18.73;16.92;;;;;;;;;;5060507;28;20402;-68
2021/06/11 13:25:57;;;;;;;17.45;15.65;;;;;;;;;;5060709;28;20900;-70
2021/06/11 13:28:23;;;;;;;20.20;17.92;;;;;;;;;;5055281;28;20405;-68
2021/06/11 13:30:49;;;;;;;17.23;15.52;;;;;;;;;;5065851;28;20398;-70
2021/06/11 13:33:18;;;;;;;19.98;17.88;;;;;;;;;;5059676;28;20391;-69
2021/06/11 13:35:44;;;;;;;21.08;19.00;;;;;;;;;;5062649;28;20417;-68
2021/06/11 13:38:10;;;;;;;21.70;19.40;;;;;;;;;;5063138;28;20419;-69
2021/06/11 13:40:36;;;;;;;17.45;15.73;;;;;;;;;;5063437;28;20395;-68
2021/06/11 13:43:02;;;;;;;13.30;11.35;;;;;;;;;;5064520;28;20387;-69
2021/06/11 13:45:28;;;;;;;14.38;12.48;;;;;;;;;;5061629;28;20383;-69
2021/06/11 13:47:55;;;;;;;14.77;13.15;;;;;;;;;;5058538;28;20867;-68
2021/06/11 13:50:21;;;;;;;15.18;13.65;;;;;;;;;;5061801;28;20414;-68
2021/06/11 13:52:48;;;;;;;16.63;14.82;;;;;;;;;;5065286;28;20441;-69
2021/06/11 13:55:14;;;;;;;17.80;15.27;;;;;;;;;;5057226;28;20388;-69
2021/06/11 13:57:41;;;;;;;13.57;12.15;;;;;;;;;;5066170;28;20438;-68
2021/06/11 14:00:08;;;;;;;14.33;12.50;;;;;;;;;;5059661;28;20403;-68
2021/06/11 14:02:34;;;;;;;14.55;12.40;;;;;;;;;;5059573;28;20436;-68
2021/06/11 14:05:00;;;;;;;11.98;10.63;;;;;;;;;;5057327;28;20495;-68
2021/06/11 14:07:26;;;;;;;13.30;11.60;;;;;;;;;;5065017;28;20847;-68
2021/06/11 14:09:52;;;;;;;12.50;11.20;;;;;;;;;;5063674;28;20403;-68
2021/06/11 14:12:20;;;;;;;15.15;11.75;;;;;;;;;;5057255;28;20739;-68
2021/06/11 14:14:47;;;;;;;12.73;11.00;;;;;;;;;;5058822;28;20462;-68
2021/06/11 14:17:13;;;;;;;11.35;9.65;;;;;;;;;;5059092;28;20513;-68
2021/06/11 14:19:39;;;;;;;11.65;10.13;;;;;;;;;;5059285;28;20406;-69
2021/06/11 14:22:05;;;;;;;13.63;10.00;;;;;;;;;;5062056;28;20392;-68
2021/06/11 14:24:31;;;;;;;12.73;8.98;;;;;;;;;;5064228;28;20405;-68